sensor_id;sensor_type;location;lat;lon;timestamp;P1;durP1;ratioP1;P2;durP2;ratioP2
8139;SDS011;4111;50.972;7.072;2023-03-01T00:01:31;10.80;;;7.23;;
8139;SDS011;4111;50.972;7.072;2023-03-01T00:03:58;12.50;;;7.37;;
8139;SDS011;4111;50.972;7.072;2023-03-01T00:06:26;9.47;;;6.23;;
8139;SDS011;4111;50.972;7.072;2023-03-01T00:08:54;8.07;;;6.20;;
8139;SDS011;4111;50.972;7.072;2023-03-01T00:11:22;8.20;;;6.20;;
8139;SDS011;4111;50.972;7.072;2023-03-01T00:13:51;7.83;;;6.40;;
8139;SDS011;4111;50.972;7.072;2023-03-01T00:16:23;6.77;;;5.80;;
8139;SDS011;4111;50.972;7.072;2023-03-01T00:18:54;7.97;;;5.97;;
8139;SDS011;4111;50.972;7.072;2023-03-01T00:21:22;5.87;;;4.77;;
8139;SDS011;4111;50.972;7.072;2023-03-01T00:23:49;5.97;;;5.03;;
8139;SDS011;4111;50.972;7.072;2023-03-01T00:26:16;7.47;;;5.57;;
8139;SDS011;4111;50.972;7.072;2023-03-01T00:28:44;7.50;;;5.97;;
8139;SDS011;4111;50.972;7.072;2023-03-01T00:31:12;7.40;;;5.50;;
8139;SDS011;4111;50.972;7.072;2023-03-01T00:33:41;5.60;;;4.93;;
8139;SDS011;4111;50.972;7.072;2023-03-01T00:36:08;6.10;;;5.30;;
8139;SDS011;4111;50.972;7.072;2023-03-01T00:38:36;7.27;;;5.40;;
8139;SDS011;4111;50.972;7.072;2023-03-01T00:41:07;6.43;;;4.80;;
8139;SDS011;4111;50.972;7.072;2023-03-01T00:43:35;5.80;;;5.03;;
8139;SDS011;4111;50.972;7.072;2023-03-01T00:46:06;7.97;;;4.90;;
8139;SDS011;4111;50.972;7.072;2023-03-01T00:48:34;7.70;;;5.23;;
8139;SDS011;4111;50.972;7.072;2023-03-01T00:53:33;5.53;;;4.97;;
8139;SDS011;4111;50.972;7.072;2023-03-01T00:56:00;8.40;;;5.37;;
8139;SDS011;4111;50.972;7.072;2023-03-01T00:58:27;6.43;;;5.67;;
8139;SDS011;4111;50.972;7.072;2023-03-01T01:00:54;5.77;;;5.10;;
8139;SDS011;4111;50.972;7.072;2023-03-01T01:03:21;5.83;;;5.20;;
8139;SDS011;4111;50.972;7.072;2023-03-01T01:05:48;6.00;;;4.90;;
8139;SDS011;4111;50.972;7.072;2023-03-01T01:08:15;5.17;;;4.77;;
8139;SDS011;4111;50.972;7.072;2023-03-01T01:10:43;7.83;;;4.73;;
8139;SDS011;4111;50.972;7.072;2023-03-01T01:13:10;6.67;;;5.07;;
8139;SDS011;4111;50.972;7.072;2023-03-01T01:15:36;7.03;;;5.40;;
8139;SDS011;4111;50.972;7.072;2023-03-01T01:18:03;8.63;;;5.37;;
8139;SDS011;4111;50.972;7.072;2023-03-01T01:20:29;7.03;;;5.13;;
8139;SDS011;4111;50.972;7.072;2023-03-01T01:22:56;5.53;;;4.70;;
8139;SDS011;4111;50.972;7.072;2023-03-01T01:25:22;6.73;;;5.10;;
8139;SDS011;4111;50.972;7.072;2023-03-01T01:27:51;5.80;;;5.03;;
8139;SDS011;4111;50.972;7.072;2023-03-01T01:30:17;5.97;;;5.00;;
8139;SDS011;4111;50.972;7.072;2023-03-01T01:32:44;5.40;;;4.27;;
8139;SDS011;4111;50.972;7.072;2023-03-01T01:35:10;9.20;;;5.50;;
8139;SDS011;4111;50.972;7.072;2023-03-01T01:37:37;5.23;;;4.73;;
8139;SDS011;4111;50.972;7.072;2023-03-01T01:40:03;6.67;;;4.90;;
8139;SDS011;4111;50.972;7.072;2023-03-01T01:42:30;7.43;;;4.77;;
8139;SDS011;4111;50.972;7.072;2023-03-01T01:45:24;5.70;;;4.63;;
8139;SDS011;4111;50.972;7.072;2023-03-01T01:47:54;5.97;;;4.57;;
8139;SDS011;4111;50.972;7.072;2023-03-01T01:50:23;6.03;;;4.63;;
8139;SDS011;4111;50.972;7.072;2023-03-01T01:52:50;5.27;;;4.80;;
8139;SDS011;4111;50.972;7.072;2023-03-01T01:55:20;5.97;;;5.13;;
8139;SDS011;4111;50.972;7.072;2023-03-01T01:57:51;8.93;;;5.00;;
8139;SDS011;4111;50.972;7.072;2023-03-01T02:00:22;8.17;;;5.40;;
8139;SDS011;4111;50.972;7.072;2023-03-01T02:02:54;6.03;;;5.00;;
8139;SDS011;4111;50.972;7.072;2023-03-01T02:05:28;5.70;;;4.70;;
8139;SDS011;4111;50.972;7.072;2023-03-01T02:08:03;5.33;;;4.70;;
8139;SDS011;4111;50.972;7.072;2023-03-01T02:10:30;8.23;;;5.43;;
8139;SDS011;4111;50.972;7.072;2023-03-01T02:13:01;5.83;;;4.93;;
8139;SDS011;4111;50.972;7.072;2023-03-01T02:15:33;5.60;;;5.10;;
8139;SDS011;4111;50.972;7.072;2023-03-01T02:18:01;7.27;;;5.30;;
8139;SDS011;4111;50.972;7.072;2023-03-01T02:20:35;6.33;;;5.23;;
8139;SDS011;4111;50.972;7.072;2023-03-01T02:23:03;9.43;;;5.50;;
8139;SDS011;4111;50.972;7.072;2023-03-01T02:30:42;5.43;;;4.93;;
8139;SDS011;4111;50.972;7.072;2023-03-01T02:33:29;6.93;;;5.50;;
8139;SDS011;4111;50.972;7.072;2023-03-01T02:36:03;6.30;;;5.53;;
8139;SDS011;4111;50.972;7.072;2023-03-01T02:38:32;5.87;;;5.20;;
8139;SDS011;4111;50.972;7.072;2023-03-01T02:40:59;6.07;;;5.47;;
8139;SDS011;4111;50.972;7.072;2023-03-01T02:43:29;5.80;;;5.20;;
8139;SDS011;4111;50.972;7.072;2023-03-01T02:45:59;6.13;;;5.17;;
8139;SDS011;4111;50.972;7.072;2023-03-01T02:48:39;6.77;;;5.63;;
8139;SDS011;4111;50.972;7.072;2023-03-01T02:56:35;8.03;;;5.60;;
8139;SDS011;4111;50.972;7.072;2023-03-01T02:59:02;6.77;;;5.10;;
8139;SDS011;4111;50.972;7.072;2023-03-01T03:01:29;7.17;;;5.60;;
8139;SDS011;4111;50.972;7.072;2023-03-01T03:04:06;5.90;;;5.17;;
8139;SDS011;4111;50.972;7.072;2023-03-01T03:06:36;7.47;;;5.67;;
8139;SDS011;4111;50.972;7.072;2023-03-01T03:09:03;5.73;;;5.13;;
8139;SDS011;4111;50.972;7.072;2023-03-01T03:11:30;7.20;;;5.13;;
8139;SDS011;4111;50.972;7.072;2023-03-01T03:13:56;6.30;;;5.37;;
8139;SDS011;4111;50.972;7.072;2023-03-01T03:16:23;7.07;;;5.53;;
8139;SDS011;4111;50.972;7.072;2023-03-01T03:18:50;6.87;;;5.80;;
8139;SDS011;4111;50.972;7.072;2023-03-01T03:21:17;6.23;;;5.40;;
8139;SDS011;4111;50.972;7.072;2023-03-01T03:23:43;5.80;;;5.13;;
8139;SDS011;4111;50.972;7.072;2023-03-01T03:26:10;6.77;;;5.83;;
8139;SDS011;4111;50.972;7.072;2023-03-01T03:28:41;7.50;;;6.00;;
8139;SDS011;4111;50.972;7.072;2023-03-01T03:31:07;6.37;;;5.37;;
8139;SDS011;4111;50.972;7.072;2023-03-01T03:33:34;8.50;;;6.03;;
8139;SDS011;4111;50.972;7.072;2023-03-01T03:36:00;6.70;;;5.77;;
8139;SDS011;4111;50.972;7.072;2023-03-01T03:38:27;7.57;;;5.73;;
8139;SDS011;4111;50.972;7.072;2023-03-01T03:41:04;7.53;;;5.70;;
8139;SDS011;4111;50.972;7.072;2023-03-01T03:43:34;6.10;;;5.50;;
8139;SDS011;4111;50.972;7.072;2023-03-01T03:46:02;7.43;;;6.20;;
8139;SDS011;4111;50.972;7.072;2023-03-01T03:48:37;8.60;;;6.13;;
8139;SDS011;4111;50.972;7.072;2023-03-01T03:51:05;9.23;;;6.00;;
8139;SDS011;4111;50.972;7.072;2023-03-01T03:53:33;6.97;;;5.20;;
8139;SDS011;4111;50.972;7.072;2023-03-01T03:55:59;8.63;;;5.43;;
8139;SDS011;4111;50.972;7.072;2023-03-01T03:58:26;7.10;;;5.80;;
8139;SDS011;4111;50.972;7.072;2023-03-01T04:00:53;5.77;;;5.17;;
8139;SDS011;4111;50.972;7.072;2023-03-01T04:03:25;7.97;;;6.40;;
8139;SDS011;4111;50.972;7.072;2023-03-01T04:05:52;6.67;;;5.57;;
8139;SDS011;4111;50.972;7.072;2023-03-01T04:08:20;7.77;;;6.13;;
8139;SDS011;4111;50.972;7.072;2023-03-01T04:10:49;9.27;;;6.07;;
8139;SDS011;4111;50.972;7.072;2023-03-01T04:13:18;7.00;;;6.30;;
8139;SDS011;4111;50.972;7.072;2023-03-01T04:15:50;8.47;;;6.40;;
8139;SDS011;4111;50.972;7.072;2023-03-01T04:18:18;8.43;;;5.70;;
8139;SDS011;4111;50.972;7.072;2023-03-01T04:20:46;8.83;;;6.37;;
8139;SDS011;4111;50.972;7.072;2023-03-01T04:23:14;8.63;;;6.37;;
8139;SDS011;4111;50.972;7.072;2023-03-01T04:28:22;8.53;;;6.40;;
8139;SDS011;4111;50.972;7.072;2023-03-01T04:30:54;6.57;;;5.80;;
8139;SDS011;4111;50.972;7.072;2023-03-01T04:33:21;8.30;;;6.10;;
8139;SDS011;4111;50.972;7.072;2023-03-01T04:35:48;8.40;;;6.10;;
8139;SDS011;4111;50.972;7.072;2023-03-01T04:38:16;8.20;;;5.10;;
8139;SDS011;4111;50.972;7.072;2023-03-01T04:40:46;8.70;;;5.70;;
8139;SDS011;4111;50.972;7.072;2023-03-01T04:43:12;6.83;;;6.13;;
8139;SDS011;4111;50.972;7.072;2023-03-01T04:45:40;8.37;;;6.53;;
8139;SDS011;4111;50.972;7.072;2023-03-01T04:48:07;9.37;;;6.90;;
8139;SDS011;4111;50.972;7.072;2023-03-01T04:50:34;9.27;;;6.30;;
8139;SDS011;4111;50.972;7.072;2023-03-01T04:53:00;7.90;;;5.80;;
8139;SDS011;4111;50.972;7.072;2023-03-01T04:55:27;8.60;;;6.30;;
8139;SDS011;4111;50.972;7.072;2023-03-01T04:57:54;12.33;;;5.80;;
8139;SDS011;4111;50.972;7.072;2023-03-01T05:00:21;10.47;;;6.57;;
8139;SDS011;4111;50.972;7.072;2023-03-01T05:02:49;9.63;;;6.93;;
8139;SDS011;4111;50.972;7.072;2023-03-01T05:05:41;7.07;;;6.00;;
8139;SDS011;4111;50.972;7.072;2023-03-01T05:08:07;7.60;;;6.77;;
8139;SDS011;4111;50.972;7.072;2023-03-01T05:10:35;8.00;;;6.23;;
8139;SDS011;4111;50.972;7.072;2023-03-01T05:13:03;8.73;;;6.60;;
8139;SDS011;4111;50.972;7.072;2023-03-01T05:15:30;8.07;;;6.83;;
8139;SDS011;4111;50.972;7.072;2023-03-01T05:17:58;8.33;;;7.00;;
8139;SDS011;4111;50.972;7.072;2023-03-01T05:20:26;8.10;;;6.30;;
8139;SDS011;4111;50.972;7.072;2023-03-01T05:22:55;7.47;;;6.30;;
8139;SDS011;4111;50.972;7.072;2023-03-01T05:25:23;8.50;;;6.50;;
8139;SDS011;4111;50.972;7.072;2023-03-01T05:27:49;8.13;;;7.33;;
8139;SDS011;4111;50.972;7.072;2023-03-01T05:30:16;10.07;;;7.23;;
8139;SDS011;4111;50.972;7.072;2023-03-01T05:32:44;9.13;;;7.23;;
8139;SDS011;4111;50.972;7.072;2023-03-01T05:35:13;7.63;;;6.70;;
8139;SDS011;4111;50.972;7.072;2023-03-01T05:37:45;21.33;;;13.13;;
8139;SDS011;4111;50.972;7.072;2023-03-01T05:40:14;26.10;;;15.90;;
8139;SDS011;4111;50.972;7.072;2023-03-01T05:42:43;22.27;;;12.93;;
8139;SDS011;4111;50.972;7.072;2023-03-01T05:45:11;17.73;;;11.23;;
8139;SDS011;4111;50.972;7.072;2023-03-01T05:47:39;18.50;;;11.67;;
8139;SDS011;4111;50.972;7.072;2023-03-01T05:50:16;14.20;;;10.37;;
8139;SDS011;4111;50.972;7.072;2023-03-01T05:52:48;12.30;;;8.83;;
8139;SDS011;4111;50.972;7.072;2023-03-01T05:55:17;11.70;;;9.03;;
8139;SDS011;4111;50.972;7.072;2023-03-01T05:57:46;9.53;;;8.00;;
8139;SDS011;4111;50.972;7.072;2023-03-01T06:00:14;9.07;;;7.67;;
8139;SDS011;4111;50.972;7.072;2023-03-01T06:02:42;11.07;;;9.87;;
8139;SDS011;4111;50.972;7.072;2023-03-01T06:05:09;9.57;;;8.10;;
8139;SDS011;4111;50.972;7.072;2023-03-01T06:07:37;15.77;;;8.80;;
8139;SDS011;4111;50.972;7.072;2023-03-01T06:10:05;10.43;;;7.37;;
8139;SDS011;4111;50.972;7.072;2023-03-01T06:12:33;13.27;;;9.07;;
8139;SDS011;4111;50.972;7.072;2023-03-01T06:15:00;10.07;;;7.83;;
8139;SDS011;4111;50.972;7.072;2023-03-01T06:17:31;10.33;;;7.50;;
8139;SDS011;4111;50.972;7.072;2023-03-01T06:20:07;12.50;;;7.67;;
8139;SDS011;4111;50.972;7.072;2023-03-01T06:22:34;8.47;;;7.57;;
8139;SDS011;4111;50.972;7.072;2023-03-01T06:25:01;12.23;;;8.43;;
8139;SDS011;4111;50.972;7.072;2023-03-01T06:27:29;12.07;;;8.70;;
8139;SDS011;4111;50.972;7.072;2023-03-01T06:29:55;11.27;;;7.97;;
8139;SDS011;4111;50.972;7.072;2023-03-01T06:32:21;15.57;;;8.07;;
8139;SDS011;4111;50.972;7.072;2023-03-01T06:34:49;12.73;;;8.63;;
8139;SDS011;4111;50.972;7.072;2023-03-01T06:37:16;11.10;;;8.53;;
8139;SDS011;4111;50.972;7.072;2023-03-01T06:39:42;9.60;;;7.50;;
8139;SDS011;4111;50.972;7.072;2023-03-01T06:42:08;11.80;;;8.17;;
8139;SDS011;4111;50.972;7.072;2023-03-01T06:44:38;10.90;;;8.30;;
8139;SDS011;4111;50.972;7.072;2023-03-01T06:47:04;12.07;;;8.27;;
8139;SDS011;4111;50.972;7.072;2023-03-01T06:49:31;12.73;;;8.70;;
8139;SDS011;4111;50.972;7.072;2023-03-01T06:51:57;12.27;;;8.17;;
8139;SDS011;4111;50.972;7.072;2023-03-01T06:54:24;9.37;;;7.90;;
8139;SDS011;4111;50.972;7.072;2023-03-01T06:56:50;11.30;;;8.30;;
8139;SDS011;4111;50.972;7.072;2023-03-01T06:59:17;10.53;;;8.20;;
8139;SDS011;4111;50.972;7.072;2023-03-01T07:01:44;11.07;;;9.07;;
8139;SDS011;4111;50.972;7.072;2023-03-01T07:04:10;11.40;;;8.40;;
8139;SDS011;4111;50.972;7.072;2023-03-01T07:06:38;18.40;;;8.27;;
8139;SDS011;4111;50.972;7.072;2023-03-01T07:09:05;11.00;;;8.97;;
8139;SDS011;4111;50.972;7.072;2023-03-01T07:11:31;16.60;;;9.23;;
8139;SDS011;4111;50.972;7.072;2023-03-01T07:13:58;11.23;;;9.20;;
8139;SDS011;4111;50.972;7.072;2023-03-01T07:16:26;13.43;;;10.23;;
8139;SDS011;4111;50.972;7.072;2023-03-01T07:18:52;12.57;;;9.77;;
8139;SDS011;4111;50.972;7.072;2023-03-01T07:21:19;15.50;;;9.40;;
8139;SDS011;4111;50.972;7.072;2023-03-01T07:23:47;10.73;;;8.20;;
8139;SDS011;4111;50.972;7.072;2023-03-01T07:26:14;11.17;;;8.53;;
8139;SDS011;4111;50.972;7.072;2023-03-01T07:28:40;16.93;;;8.33;;
8139;SDS011;4111;50.972;7.072;2023-03-01T07:31:07;9.77;;;8.23;;
8139;SDS011;4111;50.972;7.072;2023-03-01T07:33:33;11.87;;;8.97;;
8139;SDS011;4111;50.972;7.072;2023-03-01T07:36:00;10.47;;;8.67;;
8139;SDS011;4111;50.972;7.072;2023-03-01T07:38:28;8.93;;;8.03;;
8139;SDS011;4111;50.972;7.072;2023-03-01T07:40:59;10.37;;;8.27;;
8139;SDS011;4111;50.972;7.072;2023-03-01T07:43:28;9.90;;;8.73;;
8139;SDS011;4111;50.972;7.072;2023-03-01T07:45:57;12.50;;;9.17;;
8139;SDS011;4111;50.972;7.072;2023-03-01T07:48:25;12.57;;;8.53;;
8139;SDS011;4111;50.972;7.072;2023-03-01T07:50:51;10.00;;;8.73;;
8139;SDS011;4111;50.972;7.072;2023-03-01T07:53:18;13.67;;;8.77;;
8139;SDS011;4111;50.972;7.072;2023-03-01T07:55:44;12.10;;;8.97;;
8139;SDS011;4111;50.972;7.072;2023-03-01T07:58:11;10.90;;;8.57;;
8139;SDS011;4111;50.972;7.072;2023-03-01T08:00:37;10.43;;;8.97;;
8139;SDS011;4111;50.972;7.072;2023-03-01T08:03:03;12.23;;;9.47;;
8139;SDS011;4111;50.972;7.072;2023-03-01T08:05:30;10.07;;;8.67;;
8139;SDS011;4111;50.972;7.072;2023-03-01T08:07:56;13.37;;;9.40;;
8139;SDS011;4111;50.972;7.072;2023-03-01T08:10:22;9.73;;;8.73;;
8139;SDS011;4111;50.972;7.072;2023-03-01T08:12:50;11.27;;;8.73;;
8139;SDS011;4111;50.972;7.072;2023-03-01T08:15:18;9.77;;;8.77;;
8139;SDS011;4111;50.972;7.072;2023-03-01T08:17:45;9.70;;;8.17;;
8139;SDS011;4111;50.972;7.072;2023-03-01T08:20:11;10.77;;;8.43;;
8139;SDS011;4111;50.972;7.072;2023-03-01T08:22:38;10.33;;;9.13;;
8139;SDS011;4111;50.972;7.072;2023-03-01T08:25:05;14.20;;;9.20;;
8139;SDS011;4111;50.972;7.072;2023-03-01T08:27:31;13.20;;;8.60;;
8139;SDS011;4111;50.972;7.072;2023-03-01T08:29:58;12.03;;;9.10;;
8139;SDS011;4111;50.972;7.072;2023-03-01T08:32:24;10.23;;;8.53;;
8139;SDS011;4111;50.972;7.072;2023-03-01T08:34:51;10.17;;;8.30;;
8139;SDS011;4111;50.972;7.072;2023-03-01T08:37:17;9.60;;;8.20;;
8139;SDS011;4111;50.972;7.072;2023-03-01T08:39:43;11.67;;;8.80;;
8139;SDS011;4111;50.972;7.072;2023-03-01T08:42:10;11.00;;;8.80;;
8139;SDS011;4111;50.972;7.072;2023-03-01T08:44:36;10.17;;;8.20;;
8139;SDS011;4111;50.972;7.072;2023-03-01T08:47:03;8.57;;;7.57;;
8139;SDS011;4111;50.972;7.072;2023-03-01T08:49:31;9.38;;;8.45;;
8139;SDS011;4111;50.972;7.072;2023-03-01T08:51:58;10.60;;;8.33;;
8139;SDS011;4111;50.972;7.072;2023-03-01T08:54:25;13.47;;;8.50;;
8139;SDS011;4111;50.972;7.072;2023-03-01T08:56:51;13.50;;;7.50;;
8139;SDS011;4111;50.972;7.072;2023-03-01T08:59:18;11.73;;;7.90;;
8139;SDS011;4111;50.972;7.072;2023-03-01T09:01:44;9.67;;;8.07;;
8139;SDS011;4111;50.972;7.072;2023-03-01T09:04:11;9.03;;;7.43;;
8139;SDS011;4111;50.972;7.072;2023-03-01T09:06:38;8.43;;;7.37;;
8139;SDS011;4111;50.972;7.072;2023-03-01T09:09:05;8.40;;;6.90;;
8139;SDS011;4111;50.972;7.072;2023-03-01T09:11:32;10.03;;;7.63;;
8139;SDS011;4111;50.972;7.072;2023-03-01T09:13:59;10.33;;;8.07;;
8139;SDS011;4111;50.972;7.072;2023-03-01T09:16:25;9.17;;;7.00;;
8139;SDS011;4111;50.972;7.072;2023-03-01T09:18:52;13.30;;;8.03;;
8139;SDS011;4111;50.972;7.072;2023-03-01T09:21:20;8.53;;;7.37;;
8139;SDS011;4111;50.972;7.072;2023-03-01T09:24:05;8.77;;;6.57;;
8139;SDS011;4111;50.972;7.072;2023-03-01T09:26:32;8.43;;;7.57;;
8139;SDS011;4111;50.972;7.072;2023-03-01T09:28:59;8.57;;;7.53;;
8139;SDS011;4111;50.972;7.072;2023-03-01T09:31:26;9.20;;;6.60;;
8139;SDS011;4111;50.972;7.072;2023-03-01T09:33:53;9.17;;;7.07;;
8139;SDS011;4111;50.972;7.072;2023-03-01T09:36:21;9.13;;;7.37;;
8139;SDS011;4111;50.972;7.072;2023-03-01T09:38:49;12.17;;;7.63;;
8139;SDS011;4111;50.972;7.072;2023-03-01T09:44:05;10.93;;;7.77;;
8139;SDS011;4111;50.972;7.072;2023-03-01T09:46:56;8.97;;;7.20;;
8139;SDS011;4111;50.972;7.072;2023-03-01T09:49:28;8.03;;;6.50;;
8139;SDS011;4111;50.972;7.072;2023-03-01T09:54:49;7.97;;;6.97;;
8139;SDS011;4111;50.972;7.072;2023-03-01T09:57:28;10.37;;;7.67;;
8139;SDS011;4111;50.972;7.072;2023-03-01T10:00:02;10.00;;;7.50;;
8139;SDS011;4111;50.972;7.072;2023-03-01T10:02:55;9.63;;;7.87;;
8139;SDS011;4111;50.972;7.072;2023-03-01T10:10:37;9.50;;;6.67;;
8139;SDS011;4111;50.972;7.072;2023-03-01T10:13:13;12.57;;;7.40;;
8139;SDS011;4111;50.972;7.072;2023-03-01T10:15:44;9.53;;;7.27;;
8139;SDS011;4111;50.972;7.072;2023-03-01T10:18:20;8.33;;;7.53;;
8139;SDS011;4111;50.972;7.072;2023-03-01T10:20:54;11.87;;;8.10;;
8139;SDS011;4111;50.972;7.072;2023-03-01T10:23:25;12.20;;;7.50;;
8139;SDS011;4111;50.972;7.072;2023-03-01T10:28:39;9.73;;;7.57;;
8139;SDS011;4111;50.972;7.072;2023-03-01T10:31:27;9.27;;;7.17;;
8139;SDS011;4111;50.972;7.072;2023-03-01T10:34:19;8.00;;;7.20;;
8139;SDS011;4111;50.972;7.072;2023-03-01T10:37:10;8.53;;;7.50;;
8139;SDS011;4111;50.972;7.072;2023-03-01T10:39:54;8.27;;;7.00;;
8139;SDS011;4111;50.972;7.072;2023-03-01T10:42:38;8.60;;;7.00;;
8139;SDS011;4111;50.972;7.072;2023-03-01T10:48:13;9.10;;;7.50;;
8139;SDS011;4111;50.972;7.072;2023-03-01T10:50:51;8.83;;;7.43;;
8139;SDS011;4111;50.972;7.072;2023-03-01T10:56:00;9.87;;;7.37;;
8139;SDS011;4111;50.972;7.072;2023-03-01T10:58:29;10.77;;;7.67;;
8139;SDS011;4111;50.972;7.072;2023-03-01T11:01:00;11.93;;;7.33;;
8139;SDS011;4111;50.972;7.072;2023-03-01T11:06:19;11.07;;;7.80;;
8139;SDS011;4111;50.972;7.072;2023-03-01T11:08:48;8.93;;;7.13;;
8139;SDS011;4111;50.972;7.072;2023-03-01T11:11:32;8.83;;;7.13;;
8139;SDS011;4111;50.972;7.072;2023-03-01T11:16:59;7.87;;;7.07;;
8139;SDS011;4111;50.972;7.072;2023-03-01T11:19:27;8.30;;;7.33;;
8139;SDS011;4111;50.972;7.072;2023-03-01T11:24:50;10.60;;;6.60;;
8139;SDS011;4111;50.972;7.072;2023-03-01T11:27:35;7.70;;;6.90;;
8139;SDS011;4111;50.972;7.072;2023-03-01T11:33:10;10.57;;;6.53;;
8139;SDS011;4111;50.972;7.072;2023-03-01T11:38:28;8.73;;;7.00;;
8139;SDS011;4111;50.972;7.072;2023-03-01T11:41:03;8.77;;;6.90;;
8139;SDS011;4111;50.972;7.072;2023-03-01T11:54:25;9.10;;;6.53;;
8139;SDS011;4111;50.972;7.072;2023-03-01T11:57:01;7.30;;;6.20;;
8139;SDS011;4111;50.972;7.072;2023-03-01T11:59:42;7.33;;;6.20;;
8139;SDS011;4111;50.972;7.072;2023-03-01T12:05:05;6.83;;;5.93;;
8139;SDS011;4111;50.972;7.072;2023-03-01T12:10:56;9.53;;;6.60;;
8139;SDS011;4111;50.972;7.072;2023-03-01T12:19:11;7.83;;;6.23;;
8139;SDS011;4111;50.972;7.072;2023-03-01T12:25:00;7.27;;;5.70;;
8139;SDS011;4111;50.972;7.072;2023-03-01T12:33:02;9.83;;;6.50;;
8139;SDS011;4111;50.972;7.072;2023-03-01T12:38:40;6.07;;;5.50;;
8139;SDS011;4111;50.972;7.072;2023-03-01T12:41:19;7.40;;;5.27;;
8139;SDS011;4111;50.972;7.072;2023-03-01T12:43:59;6.63;;;5.93;;
8139;SDS011;4111;50.972;7.072;2023-03-01T12:49:23;6.30;;;5.73;;
8139;SDS011;4111;50.972;7.072;2023-03-01T12:54:51;6.70;;;5.60;;
8139;SDS011;4111;50.972;7.072;2023-03-01T12:57:31;6.43;;;5.33;;
8139;SDS011;4111;50.972;7.072;2023-03-01T13:05:44;6.10;;;5.50;;
8139;SDS011;4111;50.972;7.072;2023-03-01T13:08:20;7.10;;;6.17;;
8139;SDS011;4111;50.972;7.072;2023-03-01T13:11:00;6.60;;;5.90;;
8139;SDS011;4111;50.972;7.072;2023-03-01T13:13:29;6.97;;;6.27;;
8139;SDS011;4111;50.972;7.072;2023-03-01T13:15:56;9.00;;;6.73;;
8139;SDS011;4111;50.972;7.072;2023-03-01T13:18:40;8.37;;;6.33;;
8139;SDS011;4111;50.972;7.072;2023-03-01T13:21:07;7.10;;;6.40;;
8139;SDS011;4111;50.972;7.072;2023-03-01T13:23:36;6.77;;;6.07;;
8139;SDS011;4111;50.972;7.072;2023-03-01T13:31:04;7.07;;;6.33;;
8139;SDS011;4111;50.972;7.072;2023-03-01T13:36:02;7.10;;;6.37;;
8139;SDS011;4111;50.972;7.072;2023-03-01T13:38:41;7.40;;;6.57;;
8139;SDS011;4111;50.972;7.072;2023-03-01T13:57:41;8.27;;;7.47;;
8139;SDS011;4111;50.972;7.072;2023-03-01T14:03:02;8.00;;;6.87;;
8139;SDS011;4111;50.972;7.072;2023-03-01T14:05:32;7.10;;;6.40;;
8139;SDS011;4111;50.972;7.072;2023-03-01T14:07:59;6.87;;;6.23;;
8139;SDS011;4111;50.972;7.072;2023-03-01T14:10:27;7.37;;;5.63;;
8139;SDS011;4111;50.972;7.072;2023-03-01T14:13:12;6.47;;;5.83;;
8139;SDS011;4111;50.972;7.072;2023-03-01T14:15:58;8.70;;;7.60;;
8139;SDS011;4111;50.972;7.072;2023-03-01T14:18:32;7.03;;;6.33;;
8139;SDS011;4111;50.972;7.072;2023-03-01T14:21:08;12.50;;;9.63;;
8139;SDS011;4111;50.972;7.072;2023-03-01T14:23:35;11.13;;;8.23;;
8139;SDS011;4111;50.972;7.072;2023-03-01T14:26:05;8.07;;;5.77;;
8139;SDS011;4111;50.972;7.072;2023-03-01T14:28:34;7.30;;;6.17;;
8139;SDS011;4111;50.972;7.072;2023-03-01T14:34:19;7.73;;;7.03;;
8139;SDS011;4111;50.972;7.072;2023-03-01T14:36:50;7.27;;;6.47;;
8139;SDS011;4111;50.972;7.072;2023-03-01T14:39:18;7.37;;;6.63;;
8139;SDS011;4111;50.972;7.072;2023-03-01T14:41:52;8.27;;;6.97;;
8139;SDS011;4111;50.972;7.072;2023-03-01T14:44:19;7.17;;;6.47;;
8139;SDS011;4111;50.972;7.072;2023-03-01T14:46:51;8.00;;;6.80;;
8139;SDS011;4111;50.972;7.072;2023-03-01T14:49:20;11.23;;;6.70;;
8139;SDS011;4111;50.972;7.072;2023-03-01T14:52:03;7.13;;;6.30;;
8139;SDS011;4111;50.972;7.072;2023-03-01T14:54:42;8.63;;;6.87;;
8139;SDS011;4111;50.972;7.072;2023-03-01T14:57:19;7.03;;;6.40;;
8139;SDS011;4111;50.972;7.072;2023-03-01T14:59:48;8.47;;;6.60;;
8139;SDS011;4111;50.972;7.072;2023-03-01T15:02:19;9.40;;;6.57;;
8139;SDS011;4111;50.972;7.072;2023-03-01T15:04:49;8.43;;;6.47;;
8139;SDS011;4111;50.972;7.072;2023-03-01T15:07:18;7.13;;;6.43;;
8139;SDS011;4111;50.972;7.072;2023-03-01T15:09:45;8.37;;;5.77;;
8139;SDS011;4111;50.972;7.072;2023-03-01T15:14:57;7.33;;;6.67;;
8139;SDS011;4111;50.972;7.072;2023-03-01T15:17:36;9.27;;;6.37;;
8139;SDS011;4111;50.972;7.072;2023-03-01T15:20:06;7.53;;;6.50;;
8139;SDS011;4111;50.972;7.072;2023-03-01T15:22:45;7.67;;;5.63;;
8139;SDS011;4111;50.972;7.072;2023-03-01T15:25:16;8.07;;;5.83;;
8139;SDS011;4111;50.972;7.072;2023-03-01T15:27:48;8.27;;;6.10;;
8139;SDS011;4111;50.972;7.072;2023-03-01T15:30:23;10.93;;;6.63;;
8139;SDS011;4111;50.972;7.072;2023-03-01T15:35:51;7.17;;;5.93;;
8139;SDS011;4111;50.972;7.072;2023-03-01T15:38:25;8.33;;;5.80;;
8139;SDS011;4111;50.972;7.072;2023-03-01T15:44:49;7.43;;;5.43;;
8139;SDS011;4111;50.972;7.072;2023-03-01T15:50:14;7.07;;;5.87;;
8139;SDS011;4111;50.972;7.072;2023-03-01T15:52:49;9.87;;;5.50;;
8139;SDS011;4111;50.972;7.072;2023-03-01T15:55:17;5.40;;;4.87;;
8139;SDS011;4111;50.972;7.072;2023-03-01T15:57:45;8.07;;;5.57;;
8139;SDS011;4111;50.972;7.072;2023-03-01T16:00:12;5.80;;;5.30;;
8139;SDS011;4111;50.972;7.072;2023-03-01T16:02:39;9.67;;;5.67;;
8139;SDS011;4111;50.972;7.072;2023-03-01T16:05:21;7.33;;;5.33;;
8139;SDS011;4111;50.972;7.072;2023-03-01T16:07:56;6.57;;;5.80;;
8139;SDS011;4111;50.972;7.072;2023-03-01T16:10:23;7.90;;;5.90;;
8139;SDS011;4111;50.972;7.072;2023-03-01T16:12:51;7.93;;;5.50;;
8139;SDS011;4111;50.972;7.072;2023-03-01T16:15:26;6.57;;;5.40;;
8139;SDS011;4111;50.972;7.072;2023-03-01T16:17:58;8.53;;;5.57;;
8139;SDS011;4111;50.972;7.072;2023-03-01T16:20:25;7.33;;;5.37;;
8139;SDS011;4111;50.972;7.072;2023-03-01T16:22:59;8.77;;;5.57;;
8139;SDS011;4111;50.972;7.072;2023-03-01T16:25:27;7.83;;;5.77;;
8139;SDS011;4111;50.972;7.072;2023-03-01T16:27:54;9.47;;;5.87;;
8139;SDS011;4111;50.972;7.072;2023-03-01T16:30:22;10.13;;;5.13;;
8139;SDS011;4111;50.972;7.072;2023-03-01T16:32:49;7.73;;;5.30;;
8139;SDS011;4111;50.972;7.072;2023-03-01T16:35:17;7.07;;;5.40;;
8139;SDS011;4111;50.972;7.072;2023-03-01T16:37:46;6.30;;;5.57;;
8139;SDS011;4111;50.972;7.072;2023-03-01T16:42:48;7.03;;;5.50;;
8139;SDS011;4111;50.972;7.072;2023-03-01T16:45:16;6.93;;;5.33;;
8139;SDS011;4111;50.972;7.072;2023-03-01T16:47:50;7.60;;;6.53;;
8139;SDS011;4111;50.972;7.072;2023-03-01T16:50:20;10.50;;;6.57;;
8139;SDS011;4111;50.972;7.072;2023-03-01T16:52:47;7.73;;;5.47;;
8139;SDS011;4111;50.972;7.072;2023-03-01T16:55:13;7.07;;;5.27;;
8139;SDS011;4111;50.972;7.072;2023-03-01T16:57:40;9.23;;;6.03;;
8139;SDS011;4111;50.972;7.072;2023-03-01T17:00:08;6.20;;;5.57;;
8139;SDS011;4111;50.972;7.072;2023-03-01T17:02:36;5.83;;;5.23;;
8139;SDS011;4111;50.972;7.072;2023-03-01T17:05:03;7.63;;;5.37;;
8139;SDS011;4111;50.972;7.072;2023-03-01T17:07:31;7.10;;;5.20;;
8139;SDS011;4111;50.972;7.072;2023-03-01T17:10:01;6.90;;;6.00;;
8139;SDS011;4111;50.972;7.072;2023-03-01T17:12:29;8.37;;;5.90;;
8139;SDS011;4111;50.972;7.072;2023-03-01T17:14:55;6.77;;;5.23;;
8139;SDS011;4111;50.972;7.072;2023-03-01T17:17:22;8.77;;;6.10;;
8139;SDS011;4111;50.972;7.072;2023-03-01T17:19:48;7.43;;;5.17;;
8139;SDS011;4111;50.972;7.072;2023-03-01T17:22:15;9.93;;;6.30;;
8139;SDS011;4111;50.972;7.072;2023-03-01T17:24:42;6.33;;;5.50;;
8139;SDS011;4111;50.972;7.072;2023-03-01T17:27:10;7.37;;;5.50;;
8139;SDS011;4111;50.972;7.072;2023-03-01T17:29:41;6.93;;;5.53;;
8139;SDS011;4111;50.972;7.072;2023-03-01T17:32:07;8.13;;;5.30;;
8139;SDS011;4111;50.972;7.072;2023-03-01T17:34:34;13.07;;;7.20;;
8139;SDS011;4111;50.972;7.072;2023-03-01T17:37:01;7.17;;;6.20;;
8139;SDS011;4111;50.972;7.072;2023-03-01T17:39:27;7.77;;;6.47;;
8139;SDS011;4111;50.972;7.072;2023-03-01T17:42:01;9.50;;;7.30;;
8139;SDS011;4111;50.972;7.072;2023-03-01T17:44:31;23.73;;;7.53;;
8139;SDS011;4111;50.972;7.072;2023-03-01T17:47:00;8.50;;;6.33;;
8139;SDS011;4111;50.972;7.072;2023-03-01T17:49:27;7.53;;;6.37;;